createdAt,value
2022-10-19T00:02:11.578Z,50.80
2022-10-19T00:07:27.022Z,50.80
2022-10-19T00:12:41.974Z,50.80
2022-10-19T00:17:57.200Z,50.80
2022-10-19T00:23:12.172Z,51.10
2022-10-19T00:28:27.615Z,51.00
2022-10-19T00:33:43.161Z,50.90
2022-10-19T00:38:58.182Z,50.80
2022-10-19T00:44:13.186Z,50.80
2022-10-19T00:49:28.604Z,50.80
2022-10-19T00:54:44.225Z,50.60
2022-10-19T01:00:05.322Z,50.60
2022-10-19T01:06:07.490Z,50.60
2022-10-19T01:11:23.651Z,50.50
2022-10-19T01:16:39.240Z,50.50
2022-10-19T01:21:54.231Z,50.50
2022-10-19T01:27:09.511Z,50.40
2022-10-19T01:32:25.307Z,50.50
2022-10-19T01:37:40.181Z,50.30
2022-10-19T01:48:09.998Z,50.30
2022-10-19T01:53:25.517Z,50.20
2022-10-19T01:58:41.230Z,50.20
2022-10-19T02:03:57.212Z,50.30
2022-10-19T02:09:12.217Z,50.30
2022-10-19T02:14:27.191Z,50.40
2022-10-19T02:19:42.203Z,50.30
2022-10-19T02:24:57.587Z,50.30
2022-10-19T02:30:13.221Z,50.10
2022-10-19T02:35:28.512Z,50.70
2022-10-19T02:40:44.505Z,51.70
2022-10-19T02:46:00.525Z,50.80
2022-10-19T02:51:16.217Z,50.60
2022-10-19T02:56:31.385Z,50.50
2022-10-19T03:01:46.405Z,50.40
2022-10-19T03:07:02.195Z,50.10
2022-10-19T03:12:17.200Z,50.00
2022-10-19T03:17:32.463Z,49.70
2022-10-19T03:22:48.583Z,49.50
2022-10-19T03:28:04.529Z,49.50
2022-10-19T03:33:20.574Z,49.50
2022-10-19T03:38:36.199Z,49.40
2022-10-19T03:43:51.262Z,48.80
2022-10-19T03:49:06.507Z,47.20
2022-10-19T03:54:25.016Z,46.60
2022-10-19T03:59:42.225Z,46.20
2022-10-19T04:04:57.315Z,45.70
2022-10-19T04:10:12.234Z,45.60
2022-10-19T04:15:27.274Z,45.30
2022-10-19T04:20:42.186Z,45.30
2022-10-19T04:25:57.257Z,45.30
2022-10-19T04:31:12.276Z,45.30
2022-10-19T04:36:27.228Z,45.30
2022-10-19T04:41:42.504Z,45.30
2022-10-19T04:46:58.207Z,45.40
2022-10-19T04:52:13.226Z,45.20
2022-10-19T04:57:28.213Z,45.20
2022-10-19T05:02:43.286Z,45.10
2022-10-19T05:07:58.529Z,45.10
2022-10-19T05:13:14.185Z,45.00
2022-10-19T05:18:29.204Z,44.90
2022-10-19T05:23:44.203Z,44.80
2022-10-19T05:28:59.297Z,44.70
2022-10-19T05:34:14.195Z,44.80
2022-10-19T05:39:29.248Z,44.70
2022-10-19T05:44:44.255Z,44.50
2022-10-19T05:49:59.188Z,44.40
2022-10-19T05:55:14.627Z,44.40
2022-10-19T06:00:30.202Z,44.50
2022-10-19T06:05:45.252Z,44.40
2022-10-19T06:11:00.539Z,44.50
2022-10-19T06:16:16.203Z,44.40
2022-10-19T06:21:31.241Z,44.20
2022-10-19T06:26:46.375Z,43.90
2022-10-19T06:32:02.263Z,44.10
2022-10-19T06:37:17.514Z,44.00
2022-10-19T06:42:33.233Z,43.90
2022-10-19T06:47:48.958Z,43.90
2022-10-19T06:53:04.286Z,44.00
2022-10-19T06:58:19.230Z,43.90
2022-10-19T07:03:34.236Z,44.00
2022-10-19T07:08:49.543Z,44.00
2022-10-19T07:14:05.292Z,44.10
2022-10-19T07:19:20.255Z,44.00
2022-10-19T07:24:35.252Z,44.10
2022-10-19T07:29:50.267Z,44.30
2022-10-19T07:35:05.230Z,44.30
2022-10-19T07:40:20.560Z,44.40
2022-10-19T07:45:36.091Z,44.50
2022-10-19T07:50:51.261Z,44.70
2022-10-19T07:56:06.214Z,45.00
2022-10-19T08:01:21.263Z,45.00
2022-10-19T08:06:36.003Z,44.90
2022-10-19T08:11:51.229Z,44.90
2022-10-19T08:17:06.267Z,45.00
2022-10-19T08:22:21.256Z,45.30
2022-10-19T08:32:51.224Z,45.20
2022-10-19T08:38:06.298Z,45.30
2022-10-19T08:43:21.236Z,45.50
2022-10-19T08:48:36.244Z,45.70
2022-10-19T08:53:51.563Z,46.00
2022-10-19T08:59:07.217Z,46.30
2022-10-19T09:04:21.989Z,46.60
2022-10-19T09:09:37.322Z,46.80
2022-10-19T09:14:52.215Z,47.00
2022-10-19T09:20:07.212Z,47.20
2022-10-19T09:25:22.282Z,47.40
2022-10-19T09:30:37.237Z,47.70
2022-10-19T09:35:52.283Z,47.80
2022-10-19T09:41:07.233Z,48.10
2022-10-19T09:46:22.263Z,48.30
2022-10-19T09:51:37.535Z,48.20
2022-10-19T09:56:53.253Z,48.10
2022-10-19T10:02:08.242Z,48.60
2022-10-19T10:07:23.528Z,48.90
2022-10-19T10:12:39.564Z,49.00
2022-10-19T10:17:55.238Z,48.80
2022-10-19T10:23:10.326Z,48.20
2022-10-19T10:28:25.235Z,48.00
2022-10-19T10:33:44.662Z,47.60
2022-10-19T10:39:00.255Z,47.60
2022-10-19T10:44:15.253Z,47.60
2022-10-19T10:49:30.001Z,49.10
2022-10-19T10:54:45.253Z,51.60
2022-10-19T11:00:00.269Z,51.50
2022-10-19T11:05:15.255Z,51.40
2022-10-19T11:10:30.231Z,51.20
2022-10-19T11:15:45.579Z,51.10
2022-10-19T11:21:01.279Z,50.50
2022-10-19T11:26:26.316Z,49.80
2022-10-19T11:31:42.279Z,49.20
2022-10-19T11:36:57.259Z,49.40
2022-10-19T11:42:12.240Z,49.00
2022-10-19T11:47:27.262Z,48.50
2022-10-19T11:52:42.233Z,48.00
2022-10-19T11:57:57.311Z,47.70
2022-10-19T12:03:12.243Z,46.80
2022-10-19T12:08:27.312Z,46.50
2022-10-19T12:13:42.595Z,46.90
2022-10-19T12:18:58.663Z,47.60
2022-10-19T12:24:14.258Z,48.10
2022-10-19T12:29:29.242Z,47.80
2022-10-19T12:34:44.315Z,48.10
2022-10-19T12:39:59.590Z,48.50
2022-10-19T12:45:15.263Z,48.90
2022-10-19T12:50:30.893Z,49.20
2022-10-19T12:55:47.244Z,48.40
2022-10-19T13:01:02.346Z,48.10
2022-10-19T13:06:17.242Z,48.50
2022-10-19T13:11:32.600Z,48.10
2022-10-19T13:16:48.251Z,47.70
2022-10-19T13:22:03.236Z,48.40
2022-10-19T13:27:18.340Z,48.60
2022-10-19T13:32:33.681Z,49.10
2022-10-19T13:37:49.310Z,48.80
2022-10-19T13:43:04.297Z,48.70
2022-10-19T13:48:18.960Z,48.70
2022-10-19T13:53:34.883Z,49.10
2022-10-19T13:58:50.239Z,49.20
2022-10-19T14:04:05.662Z,48.20
2022-10-19T14:09:21.029Z,49.40
2022-10-19T14:14:36.278Z,51.90
2022-10-19T14:19:51.265Z,52.00
2022-10-19T14:25:06.366Z,51.80
2022-10-19T14:30:21.239Z,52.00
2022-10-19T14:35:36.224Z,51.80
2022-10-19T14:40:51.284Z,51.70
2022-10-19T14:46:06.290Z,51.40
2022-10-19T14:51:21.248Z,51.10
2022-10-19T14:56:36.363Z,52.10
2022-10-19T15:01:51.685Z,52.10
2022-10-19T15:07:07.309Z,52.00
2022-10-19T15:12:22.287Z,51.90
2022-10-19T15:17:37.282Z,52.00
2022-10-19T15:22:52.365Z,52.10
2022-10-19T15:28:07.309Z,51.60
2022-10-19T15:33:22.287Z,51.10
2022-10-19T15:38:37.245Z,50.70
2022-10-19T15:43:52.718Z,50.30
2022-10-19T15:49:08.257Z,50.20
2022-10-19T15:54:23.294Z,50.20
2022-10-19T15:59:38.591Z,50.70
2022-10-19T16:04:54.694Z,51.40
2022-10-19T16:10:10.588Z,51.70
2022-10-19T16:15:26.655Z,51.50
2022-10-19T16:20:41.601Z,51.90
2022-10-19T16:25:57.320Z,52.50
2022-10-19T16:31:12.577Z,53.10
2022-10-19T16:36:28.580Z,53.30
2022-10-19T16:41:44.588Z,54.30
2022-10-19T16:47:00.321Z,55.20
2022-10-19T16:52:15.555Z,55.30
2022-10-19T16:57:31.251Z,55.30
2022-10-19T17:02:46.672Z,55.10
2022-10-19T17:08:02.572Z,55.20
2022-10-19T17:13:18.142Z,55.30
2022-10-19T17:18:33.316Z,55.10
2022-10-19T17:23:48.360Z,54.90
2022-10-19T17:29:03.264Z,54.40
2022-10-19T17:34:18.260Z,53.90
2022-10-19T17:39:33.610Z,53.70
2022-10-19T17:44:52.292Z,53.00
2022-10-19T17:50:07.363Z,52.60
2022-10-19T18:00:37.782Z,51.80
2022-10-19T18:05:53.301Z,51.60
2022-10-19T18:11:08.589Z,51.30
2022-10-19T18:16:24.296Z,50.80
2022-10-19T18:21:39.308Z,50.60
2022-10-19T18:26:54.318Z,50.40
2022-10-19T18:32:09.747Z,50.20
2022-10-19T18:37:26.626Z,49.90
2022-10-19T18:42:42.881Z,49.80
2022-10-19T18:47:58.355Z,49.70
2022-10-19T18:53:13.531Z,49.50
2022-10-19T18:58:29.687Z,49.30
2022-10-19T19:03:45.301Z,49.10
2022-10-19T19:09:00.301Z,49.00
2022-10-19T19:14:15.305Z,48.90
2022-10-19T19:19:30.628Z,48.90
2022-10-19T19:24:46.341Z,49.00
2022-10-19T19:30:01.298Z,49.00
2022-10-19T19:35:16.431Z,49.00
2022-10-19T19:40:31.284Z,49.00
2022-10-19T19:45:46.606Z,48.90
2022-10-19T19:51:03.583Z,48.70
2022-10-19T19:56:20.581Z,49.30
2022-10-19T20:01:36.099Z,49.60
2022-10-19T20:06:51.363Z,49.40
2022-10-19T20:12:06.639Z,49.20
2022-10-19T20:17:22.357Z,49.10
2022-10-19T20:22:37.317Z,49.10
2022-10-19T20:27:52.363Z,49.10
2022-10-19T20:33:07.297Z,49.00
2022-10-19T20:38:22.264Z,49.10
2022-10-19T20:43:37.308Z,49.00
2022-10-19T20:48:52.591Z,48.90
2022-10-19T20:54:08.611Z,48.70
2022-10-19T20:59:24.053Z,48.80
2022-10-19T21:04:39.266Z,48.50
2022-10-19T21:09:54.377Z,48.50
2022-10-19T21:15:09.270Z,48.50
2022-10-19T21:20:24.608Z,48.40
2022-10-19T21:25:40.312Z,48.50
2022-10-19T21:30:55.596Z,48.60
2022-10-19T21:36:11.508Z,48.60
2022-10-19T21:41:27.297Z,48.50
2022-10-19T21:46:42.287Z,48.40
2022-10-19T21:51:57.554Z,48.50
2022-10-19T21:57:14.118Z,48.40
2022-10-19T22:02:29.279Z,48.50
2022-10-19T22:07:44.279Z,48.40
2022-10-19T22:12:59.694Z,48.40
2022-10-19T22:18:15.291Z,49.20
2022-10-19T22:23:30.286Z,48.70
2022-10-19T22:28:45.265Z,48.60
2022-10-19T22:34:00.255Z,48.70
2022-10-19T22:39:15.318Z,48.90
2022-10-19T22:44:30.291Z,49.40
2022-10-19T22:49:45.638Z,48.60
2022-10-19T22:55:01.280Z,48.60
2022-10-19T23:00:16.311Z,48.70
2022-10-19T23:05:31.585Z,48.70
2022-10-19T23:10:47.052Z,48.40
2022-10-19T23:16:02.144Z,48.50
2022-10-19T23:21:17.294Z,48.40
2022-10-19T23:26:32.270Z,48.40
2022-10-19T23:31:47.617Z,48.50
2022-10-19T23:37:03.342Z,48.40
2022-10-19T23:42:18.063Z,48.20
2022-10-19T23:47:33.505Z,48.20
2022-10-19T23:52:49.617Z,48.20
2022-10-19T23:58:05.325Z,48.20
